createdAt,value
2023-01-12T00:02:26.829Z,95062.91
2023-01-12T00:04:55.886Z,95057.50
2023-01-12T00:07:24.780Z,95062.34
2023-01-12T00:09:53.815Z,95064.44
2023-01-12T00:12:22.761Z,95060.66
2023-01-12T00:14:52.135Z,95066.44
2023-01-12T00:17:22.989Z,95066.81
2023-01-12T00:19:52.213Z,95069.47
2023-01-12T00:22:22.122Z,95067.28
2023-01-12T00:24:52.761Z,95075.75
2023-01-12T00:27:22.566Z,95079.00
2023-01-12T00:29:51.695Z,95082.72
2023-01-12T00:32:22.464Z,95078.91
2023-01-12T00:34:51.376Z,95084.53
2023-01-12T00:37:21.150Z,95087.38
2023-01-12T00:40:02.011Z,95077.63
2023-01-12T00:42:51.236Z,95074.09
2023-01-12T00:45:23.156Z,95075.16
2023-01-12T00:47:53.915Z,95093.84
2023-01-12T00:50:23.156Z,95090.53
2023-01-12T00:52:52.094Z,95089.94
2023-01-12T00:55:21.155Z,95107.44
2023-01-12T00:57:50.197Z,95113.47
2023-01-12T01:00:22.193Z,95107.63
2023-01-12T01:02:52.785Z,95101.31
2023-01-12T01:05:21.822Z,95092.09
2023-01-12T01:07:50.722Z,95091.91
2023-01-12T01:10:19.824Z,95088.63
2023-01-12T01:12:48.887Z,95082.44
2023-01-12T01:15:18.626Z,95078.16
2023-01-12T01:17:47.965Z,95090.84
2023-01-12T01:20:18.715Z,95086.78
2023-01-12T01:22:47.763Z,95087.81
2023-01-12T01:25:17.547Z,95090.31
2023-01-12T01:27:47.386Z,95088.69
2023-01-12T01:30:16.922Z,95093.22
2023-01-12T01:32:45.813Z,95090.31
2023-01-12T01:35:15.455Z,95079.00
2023-01-12T01:37:45.859Z,95074.28
2023-01-12T01:40:15.871Z,95074.81
2023-01-12T01:42:45.443Z,95067.91
2023-01-12T01:45:17.097Z,95064.59
2023-01-12T01:47:50.718Z,95070.69
2023-01-12T01:50:23.715Z,95074.94
2023-01-12T01:52:57.917Z,95076.03
2023-01-12T01:55:30.496Z,95077.44
2023-01-12T01:58:04.558Z,95081.84
2023-01-12T02:00:33.540Z,95084.47
2023-01-12T02:03:04.575Z,95082.31
2023-01-12T02:05:35.924Z,95091.22
2023-01-12T02:08:13.088Z,95083.97
2023-01-12T02:10:42.340Z,95078.75
2023-01-12T02:13:29.565Z,95083.16
2023-01-12T02:16:20.986Z,95078.50
2023-01-12T02:19:06.671Z,95078.69
2023-01-12T02:22:13.220Z,95077.63
2023-01-12T02:25:05.677Z,95080.50
2023-01-12T02:28:05.147Z,95081.13
2023-01-12T02:31:22.333Z,95069.84
2023-01-12T02:34:06.234Z,95071.91
2023-01-12T02:36:43.926Z,95075.25
2023-01-12T02:39:18.596Z,95069.28
2023-01-12T02:42:16.317Z,95071.72
2023-01-12T02:44:53.391Z,95076.03
2023-01-12T02:47:29.078Z,95072.34
2023-01-12T02:50:04.369Z,95076.09
2023-01-12T02:52:36.169Z,95083.81
2023-01-12T02:55:08.172Z,95079.84
2023-01-12T02:57:39.253Z,95082.50
2023-01-12T03:00:10.105Z,95076.28
2023-01-12T03:02:40.569Z,95077.53
2023-01-12T03:05:10.215Z,95076.47
2023-01-12T03:07:52.110Z,95079.53
2023-01-12T03:10:35.575Z,95068.38
2023-01-12T03:13:08.463Z,95071.81
2023-01-12T03:15:41.684Z,95072.22
2023-01-12T03:18:16.663Z,95073.66
2023-01-12T03:20:51.360Z,95075.72
2023-01-12T03:23:23.407Z,95078.66
2023-01-12T03:25:57.242Z,95080.28
2023-01-12T03:28:29.496Z,95074.47
2023-01-12T03:31:04.022Z,95080.38
2023-01-12T03:33:34.397Z,95080.97
2023-01-12T03:36:11.191Z,95079.22
2023-01-12T03:38:47.114Z,95078.59
2023-01-12T03:41:27.905Z,95075.66
2023-01-12T03:44:02.817Z,95074.66
2023-01-12T03:46:37.173Z,95070.63
2023-01-12T03:49:14.680Z,95073.25
2023-01-12T03:51:48.339Z,95075.16
2023-01-12T03:54:20.120Z,95067.88
2023-01-12T03:56:51.363Z,95073.44
2023-01-12T03:59:20.374Z,95068.38
2023-01-12T04:01:49.858Z,95064.81
2023-01-12T04:04:20.670Z,95061.97
2023-01-12T04:06:49.628Z,95058.78
2023-01-12T04:09:23.160Z,95051.31
2023-01-12T04:12:09.531Z,95055.75
2023-01-12T04:14:38.759Z,95053.69
2023-01-12T04:17:08.057Z,95060.91
2023-01-12T04:19:38.945Z,95054.72
2023-01-12T04:22:25.723Z,95054.47
2023-01-12T04:24:54.811Z,95052.69
2023-01-12T04:27:23.855Z,95062.34
2023-01-12T04:29:52.901Z,95057.28
2023-01-12T04:32:22.138Z,95058.63
2023-01-12T04:34:52.663Z,95058.63
2023-01-12T04:37:21.706Z,95060.25
2023-01-12T04:39:50.599Z,95059.22
2023-01-12T04:42:37.770Z,95065.13
2023-01-12T04:45:10.403Z,95060.25
2023-01-12T04:47:39.516Z,95059.41
2023-01-12T04:50:11.276Z,95069.03
2023-01-12T04:52:40.417Z,95070.66
2023-01-12T04:55:10.045Z,95071.47
2023-01-12T04:57:39.097Z,95080.53
2023-01-12T05:00:09.382Z,95072.50
2023-01-12T05:02:38.962Z,95075.00
2023-01-12T05:05:10.338Z,95081.97
2023-01-12T05:07:59.495Z,95083.78
2023-01-12T05:10:27.424Z,95081.34
2023-01-12T05:12:56.320Z,95090.09
2023-01-12T05:15:25.459Z,95084.47
2023-01-12T05:17:54.650Z,95090.31
2023-01-12T05:20:25.364Z,95088.00
2023-01-12T05:22:55.241Z,95094.03
2023-01-12T05:25:24.238Z,95100.53
2023-01-12T05:27:58.022Z,95105.38
2023-01-12T05:30:27.259Z,95108.22
2023-01-12T05:32:56.355Z,95116.94
2023-01-12T05:35:26.711Z,95118.16
2023-01-12T05:37:57.073Z,95114.13
2023-01-12T05:40:26.265Z,95122.97
2023-01-12T05:43:12.422Z,95120.25
2023-01-12T05:45:41.462Z,95130.53
2023-01-12T05:48:11.594Z,95136.59
2023-01-12T05:50:43.541Z,95132.53
2023-01-12T05:53:12.569Z,95132.16
2023-01-12T05:55:41.649Z,95140.13
2023-01-12T05:58:10.602Z,95140.59
2023-01-12T06:00:39.658Z,95149.78
2023-01-12T06:03:08.822Z,95152.47
2023-01-12T06:05:37.938Z,95149.41
2023-01-12T06:08:08.553Z,95154.47
2023-01-12T06:10:39.580Z,95149.59
2023-01-12T06:13:25.944Z,95145.72
2023-01-12T06:15:55.016Z,95145.25
2023-01-12T06:18:24.117Z,95148.13
2023-01-12T06:20:53.178Z,95149.94
2023-01-12T06:23:23.681Z,95148.50
2023-01-12T06:26:09.107Z,95149.94
2023-01-12T06:28:40.859Z,95151.91
2023-01-12T06:31:12.173Z,95146.06
2023-01-12T06:33:41.475Z,95144.41
2023-01-12T06:36:11.382Z,95141.34
2023-01-12T06:38:43.559Z,95140.44
2023-01-12T06:41:34.916Z,95140.81
2023-01-12T06:44:03.951Z,95140.34
2023-01-12T06:46:32.988Z,95135.75
2023-01-12T06:49:02.172Z,95135.69
2023-01-12T06:51:31.366Z,95136.13
2023-01-12T06:54:01.931Z,95133.06
2023-01-12T06:56:31.810Z,95133.69
2023-01-12T06:59:01.169Z,95135.75
2023-01-12T07:01:30.495Z,95139.91
2023-01-12T07:03:59.697Z,95141.16
2023-01-12T07:06:28.755Z,95143.16
2023-01-12T07:08:58.126Z,95154.25
2023-01-12T07:11:28.700Z,95147.03
2023-01-12T07:13:59.099Z,95136.81
2023-01-12T07:16:28.241Z,95143.44
2023-01-12T07:18:57.303Z,95155.69
2023-01-12T07:21:26.369Z,95148.72
2023-01-12T07:23:55.923Z,95157.94
2023-01-12T07:26:24.834Z,95151.50
2023-01-12T07:28:56.695Z,95154.91
2023-01-12T07:31:25.723Z,95156.41
2023-01-12T07:33:55.107Z,95157.03
2023-01-12T07:36:25.905Z,95151.69
2023-01-12T07:38:55.253Z,95155.03
2023-01-12T07:41:41.428Z,95146.44
2023-01-12T07:44:12.450Z,95138.28
2023-01-12T07:46:41.599Z,95139.72
2023-01-12T07:49:10.587Z,95141.63
2023-01-12T07:51:39.937Z,95140.47
2023-01-12T07:54:09.345Z,95154.38
2023-01-12T07:56:38.749Z,95144.13
2023-01-12T07:59:07.903Z,95146.03
2023-01-12T08:01:38.459Z,95151.88
2023-01-12T08:04:07.623Z,95156.06
2023-01-12T08:06:36.787Z,95153.69
2023-01-12T08:09:06.050Z,95152.44
2023-01-12T08:11:35.067Z,95160.78
2023-01-12T08:14:06.022Z,95160.06
2023-01-12T08:16:41.253Z,95163.47
2023-01-12T08:19:14.294Z,95150.94
2023-01-12T08:21:46.293Z,95164.00
2023-01-12T08:24:18.511Z,95164.41
2023-01-12T08:26:52.317Z,95162.78
2023-01-12T08:29:30.152Z,95164.34
2023-01-12T08:32:04.710Z,95175.38
2023-01-12T08:34:34.559Z,95173.38
2023-01-12T08:37:09.610Z,95187.59
2023-01-12T08:39:41.842Z,95174.31
2023-01-12T08:42:11.086Z,95180.47
2023-01-12T08:44:40.268Z,95183.22
2023-01-12T08:47:18.443Z,95181.63
2023-01-12T08:49:47.878Z,95193.53
2023-01-12T08:52:17.546Z,95176.50
2023-01-12T08:54:46.983Z,95179.00
2023-01-12T08:57:17.191Z,95180.94
2023-01-12T08:59:46.223Z,95179.94
2023-01-12T09:02:17.875Z,95183.94
2023-01-12T09:04:46.968Z,95187.34
2023-01-12T09:07:17.416Z,95187.13
2023-01-12T09:09:46.680Z,95186.28
2023-01-12T09:12:15.640Z,95172.72
2023-01-12T09:14:44.598Z,95175.81
2023-01-12T09:17:13.677Z,95176.25
2023-01-12T09:19:50.021Z,95180.72
2023-01-12T09:22:19.153Z,95175.66
2023-01-12T09:24:48.160Z,95177.34
2023-01-12T09:27:17.106Z,95166.84
2023-01-12T09:29:46.119Z,95169.28
2023-01-12T09:32:16.875Z,95171.91
2023-01-12T09:34:48.825Z,95169.66
2023-01-12T09:37:17.800Z,95179.53
2023-01-12T09:39:46.961Z,95171.66
2023-01-12T09:42:38.082Z,95165.59
2023-01-12T09:45:36.836Z,95175.31
2023-01-12T09:48:08.503Z,95176.09
2023-01-12T09:50:41.168Z,95174.91
2023-01-12T09:53:20.845Z,95174.25
2023-01-12T09:55:58.000Z,95186.50
2023-01-12T09:58:40.753Z,95178.50
2023-01-12T10:01:20.636Z,95178.25
2023-01-12T10:03:58.934Z,95169.94
2023-01-12T10:06:29.709Z,95170.19
2023-01-12T10:08:59.970Z,95177.25
2023-01-12T10:11:39.168Z,95175.19
2023-01-12T10:14:45.258Z,95181.31
2023-01-12T10:17:38.532Z,95182.13
2023-01-12T10:20:19.992Z,95178.53
2023-01-12T10:22:54.095Z,95170.53
2023-01-12T10:25:32.339Z,95162.63
2023-01-12T10:28:06.534Z,95162.41
2023-01-12T10:30:38.036Z,95164.59
2023-01-12T10:33:15.601Z,95159.38
2023-01-12T10:35:57.453Z,95153.16
2023-01-12T10:38:31.614Z,95148.75
2023-01-12T10:41:19.940Z,95147.44
2023-01-12T10:44:23.994Z,95150.06
2023-01-12T10:47:10.740Z,95153.06
2023-01-12T10:49:39.855Z,95141.75
2023-01-12T10:52:12.573Z,95147.19
2023-01-12T10:54:50.769Z,95135.69
2023-01-12T10:57:23.172Z,95141.19
2023-01-12T10:59:54.828Z,95142.38
2023-01-12T11:02:26.494Z,95144.22
2023-01-12T11:04:56.637Z,95134.88
2023-01-12T11:07:29.396Z,95138.31
2023-01-12T11:10:20.866Z,95129.88
2023-01-12T11:12:57.710Z,95132.69
2023-01-12T11:15:27.494Z,95130.69
2023-01-12T11:18:11.697Z,95125.03
2023-01-12T11:20:44.469Z,95124.63
2023-01-12T11:23:18.167Z,95123.97
2023-01-12T11:25:53.290Z,95120.53
2023-01-12T11:28:25.670Z,95125.97
2023-01-12T11:30:59.919Z,95123.72
2023-01-12T11:33:33.012Z,95124.38
2023-01-12T11:36:07.902Z,95120.38
2023-01-12T11:38:41.881Z,95125.38
2023-01-12T11:41:27.029Z,95121.94
2023-01-12T11:44:03.376Z,95117.31
2023-01-12T11:46:37.967Z,95112.31
2023-01-12T11:49:14.452Z,95120.00
2023-01-12T11:51:44.665Z,95116.56
2023-01-12T11:54:17.318Z,95119.50
2023-01-12T11:57:21.174Z,95117.31
2023-01-12T11:59:56.519Z,95118.91
2023-01-12T12:02:37.352Z,95111.84
2023-01-12T12:05:22.345Z,95110.84
2023-01-12T12:08:08.447Z,95108.06
2023-01-12T12:10:45.365Z,95110.25
2023-01-12T12:13:30.384Z,95111.88
2023-01-12T12:16:11.766Z,95096.56
2023-01-12T12:18:52.289Z,95100.03
2023-01-12T12:21:44.618Z,95101.25
2023-01-12T12:24:26.779Z,95100.06
2023-01-12T12:27:07.227Z,95096.41
2023-01-12T12:29:57.289Z,95091.56
2023-01-12T12:32:37.097Z,95095.03
2023-01-12T12:35:28.358Z,95094.22
2023-01-12T12:38:09.529Z,95092.59
2023-01-12T12:41:09.849Z,95087.75
2023-01-12T12:43:56.757Z,95093.81
2023-01-12T12:46:37.940Z,95096.03
2023-01-12T12:49:10.204Z,95092.41
2023-01-12T12:51:41.098Z,95102.50
2023-01-12T12:54:17.405Z,95100.47
2023-01-12T12:56:48.060Z,95102.69
2023-01-12T12:59:51.859Z,95100.81
2023-01-12T13:02:53.980Z,95113.78
2023-01-12T13:05:43.550Z,95114.56
2023-01-12T13:08:23.216Z,95115.72
2023-01-12T13:10:55.809Z,95110.69
2023-01-12T13:13:33.706Z,95107.38
2023-01-12T13:16:41.735Z,95113.66
2023-01-12T13:19:17.307Z,95109.19
2023-01-12T13:21:56.517Z,95115.38
2023-01-12T13:24:29.300Z,95113.78
2023-01-12T13:27:00.995Z,95113.16
2023-01-12T13:29:50.920Z,95115.44
2023-01-12T13:32:51.158Z,95112.97
2023-01-12T13:36:10.570Z,95111.50
2023-01-12T13:38:53.659Z,95108.69
2023-01-12T13:41:45.355Z,95099.13
2023-01-12T13:44:21.282Z,95113.03
2023-01-12T13:46:52.796Z,95107.34
2023-01-12T13:49:31.126Z,95101.50
2023-01-12T13:52:10.038Z,95110.97
2023-01-12T13:54:50.358Z,95100.69
2023-01-12T13:57:22.318Z,95108.53
2023-01-12T13:59:59.260Z,95110.84
2023-01-12T14:02:32.093Z,95098.22
2023-01-12T14:05:29.580Z,95099.28
2023-01-12T14:08:12.025Z,95103.28
2023-01-12T14:10:49.163Z,95100.16
2023-01-12T14:13:37.213Z,95095.97
2023-01-12T14:16:30.585Z,95101.81
2023-01-12T14:18:59.909Z,95097.16
2023-01-12T14:21:33.012Z,95103.78
2023-01-12T14:24:18.719Z,95104.91
2023-01-12T14:26:48.307Z,95112.19
2023-01-12T14:29:17.359Z,95105.44
2023-01-12T14:31:49.638Z,95099.38
2023-01-12T14:34:28.945Z,95109.84
2023-01-12T14:36:58.490Z,95103.00
2023-01-12T14:39:36.898Z,95105.78
2023-01-12T14:42:23.859Z,95106.56
2023-01-12T14:45:12.579Z,95105.41
2023-01-12T14:47:43.703Z,95102.53
2023-01-12T14:50:19.424Z,95108.97
2023-01-12T14:52:50.600Z,95114.88
2023-01-12T14:55:38.346Z,95104.59
2023-01-12T14:58:16.076Z,95108.47
2023-01-12T15:00:45.447Z,95103.88
2023-01-12T15:03:26.384Z,95116.78
2023-01-12T15:05:59.466Z,95113.47
2023-01-12T15:08:30.961Z,95120.78
2023-01-12T15:11:07.453Z,95122.69
2023-01-12T15:13:37.871Z,95118.84
2023-01-12T15:16:25.458Z,95122.59
2023-01-12T15:19:12.028Z,95127.19
2023-01-12T15:22:05.079Z,95128.25
2023-01-12T15:24:54.445Z,95132.19
2023-01-12T15:27:25.535Z,95125.91
2023-01-12T15:29:55.230Z,95128.94
2023-01-12T15:32:46.156Z,95126.00
2023-01-12T15:35:21.508Z,95135.97
2023-01-12T15:37:51.395Z,95137.69
2023-01-12T15:40:20.942Z,95144.72
2023-01-12T15:42:53.350Z,95139.53
2023-01-12T15:45:33.440Z,95140.00
2023-01-12T15:48:06.042Z,95143.28
2023-01-12T15:50:37.964Z,95141.47
2023-01-12T15:53:12.215Z,95141.75
2023-01-12T15:55:41.654Z,95141.66
2023-01-12T15:58:12.442Z,95147.22
2023-01-12T16:00:42.080Z,95151.19
2023-01-12T16:03:24.216Z,95148.00
2023-01-12T16:06:03.148Z,95149.00
2023-01-12T16:08:32.334Z,95155.63
2023-01-12T16:11:14.630Z,95150.50
2023-01-12T16:13:45.491Z,95153.25
2023-01-12T16:16:17.692Z,95150.69
2023-01-12T16:18:47.994Z,95152.94
2023-01-12T16:21:18.865Z,95158.03
2023-01-12T16:23:48.029Z,95156.84
2023-01-12T16:26:17.019Z,95158.75
2023-01-12T16:28:47.510Z,95162.03
2023-01-12T16:31:16.961Z,95155.38
2023-01-12T16:33:46.845Z,95156.66
2023-01-12T16:36:17.839Z,95165.63
2023-01-12T16:38:46.920Z,95155.94
2023-01-12T16:41:20.463Z,95163.34
2023-01-12T16:43:51.203Z,95168.41
2023-01-12T16:46:20.359Z,95172.72
2023-01-12T16:48:49.838Z,95183.22
2023-01-12T16:51:20.799Z,95172.03
2023-01-12T16:53:51.676Z,95182.19
2023-01-12T16:56:20.833Z,95179.81
2023-01-12T16:58:52.145Z,95191.59
2023-01-12T17:01:23.696Z,95195.84
2023-01-12T17:03:58.017Z,95196.72
2023-01-12T17:06:29.347Z,95195.22
2023-01-12T17:09:01.680Z,95200.09
2023-01-12T17:11:31.149Z,95210.63
2023-01-12T17:14:22.772Z,95210.31
2023-01-12T17:16:53.184Z,95210.63
2023-01-12T17:19:23.166Z,95207.88
2023-01-12T17:21:54.275Z,95209.13
2023-01-12T17:24:24.347Z,95218.41
2023-01-12T17:26:55.499Z,95218.09
2023-01-12T17:29:27.442Z,95225.03
2023-01-12T17:32:06.212Z,95221.94
2023-01-12T17:34:39.172Z,95227.25
2023-01-12T17:37:09.973Z,95235.38
2023-01-12T17:39:41.678Z,95237.00
2023-01-12T17:42:30.192Z,95235.03
2023-01-12T17:45:00.824Z,95228.75
2023-01-12T17:47:30.484Z,95227.72
2023-01-12T17:49:59.638Z,95225.22
2023-01-12T17:52:29.409Z,95231.47
2023-01-12T17:54:59.417Z,95230.31
2023-01-12T17:57:28.715Z,95229.53
2023-01-12T17:59:57.980Z,95230.78
2023-01-12T18:02:28.854Z,95238.63
2023-01-12T18:04:58.184Z,95235.38
2023-01-12T18:07:27.389Z,95242.88
2023-01-12T18:09:56.601Z,95243.63
2023-01-12T18:12:26.347Z,95241.31
2023-01-12T18:14:56.689Z,95239.31
2023-01-12T18:17:25.767Z,95242.25
2023-01-12T18:19:56.521Z,95238.38
2023-01-12T18:22:26.040Z,95242.31
2023-01-12T18:24:55.327Z,95236.22
2023-01-12T18:27:25.010Z,95238.88
2023-01-12T18:29:54.161Z,95245.13
2023-01-12T18:32:23.496Z,95242.50
2023-01-12T18:34:52.727Z,95247.56
2023-01-12T18:37:23.564Z,95244.56
2023-01-12T18:39:52.778Z,95244.47
2023-01-12T18:42:39.249Z,95247.69
2023-01-12T18:45:09.394Z,95245.59
2023-01-12T18:47:56.100Z,95240.88
2023-01-12T18:50:42.695Z,95241.00
2023-01-12T18:53:29.407Z,95239.19
2023-01-12T18:56:01.884Z,95233.94
2023-01-12T18:58:32.837Z,95237.81
2023-01-12T19:01:05.283Z,95246.03
2023-01-12T19:03:35.672Z,95245.19
2023-01-12T19:06:22.789Z,95242.19
2023-01-12T19:09:11.212Z,95242.81
2023-01-12T19:11:41.567Z,95242.44
2023-01-12T19:14:29.093Z,95241.00
2023-01-12T19:17:15.257Z,95247.59
2023-01-12T19:19:44.289Z,95254.09
2023-01-12T19:22:39.176Z,95244.47
2023-01-12T19:25:30.830Z,95241.63
2023-01-12T19:28:17.741Z,95242.75
2023-01-12T19:30:48.346Z,95248.34
2023-01-12T19:33:18.700Z,95244.81
2023-01-12T19:35:48.837Z,95247.41
2023-01-12T19:38:18.115Z,95249.66
2023-01-12T19:40:52.774Z,95249.13
2023-01-12T19:43:25.346Z,95250.34
2023-01-12T19:45:58.944Z,95239.88
2023-01-12T19:48:29.575Z,95248.69
2023-01-12T19:51:08.370Z,95241.75
2023-01-12T19:53:40.797Z,95243.81
2023-01-12T19:56:14.824Z,95246.44
2023-01-12T19:58:45.341Z,95238.94
2023-01-12T20:01:24.150Z,95238.75
2023-01-12T20:03:53.809Z,95244.16
2023-01-12T20:06:22.803Z,95242.34
2023-01-12T20:08:53.294Z,95238.16
2023-01-12T20:11:23.910Z,95234.44
2023-01-12T20:13:53.084Z,95233.28
2023-01-12T20:16:22.437Z,95233.91
2023-01-12T20:18:56.840Z,95235.53
2023-01-12T20:21:25.916Z,95227.03
2023-01-12T20:23:55.215Z,95241.75
2023-01-12T20:26:25.914Z,95242.13
2023-01-12T20:28:55.141Z,95233.69
2023-01-12T20:31:24.532Z,95235.53
2023-01-12T20:33:53.686Z,95237.13
2023-01-12T20:36:22.610Z,95233.50
2023-01-12T20:38:52.692Z,95238.25
2023-01-12T20:41:22.811Z,95236.44
2023-01-12T20:43:53.296Z,95236.63
2023-01-12T20:46:22.655Z,95240.31
2023-01-12T20:48:53.008Z,95231.66
2023-01-12T20:51:22.354Z,95238.31
2023-01-12T20:53:51.474Z,95233.28
2023-01-12T20:56:20.925Z,95238.31
2023-01-12T20:58:50.182Z,95235.53
2023-01-12T21:01:20.943Z,95235.91
2023-01-12T21:03:50.363Z,95235.72
2023-01-12T21:06:19.803Z,95233.91
2023-01-12T21:08:49.354Z,95233.63
2023-01-12T21:11:20.781Z,95234.09
2023-01-12T21:13:51.489Z,95246.78
2023-01-12T21:16:22.898Z,95247.09
2023-01-12T21:18:53.487Z,95238.03
2023-01-12T21:21:22.813Z,95244.47
2023-01-12T21:23:51.892Z,95245.69
2023-01-12T21:26:21.332Z,95237.44
2023-01-12T21:28:50.335Z,95247.31
2023-01-12T21:31:19.595Z,95241.13
2023-01-12T21:33:50.139Z,95241.13
2023-01-12T21:36:20.081Z,95244.78
2023-01-12T21:38:51.750Z,95245.59
2023-01-12T21:41:22.007Z,95241.56
2023-01-12T21:43:52.264Z,95248.44
2023-01-12T21:46:22.575Z,95248.63
2023-01-12T21:48:53.065Z,95247.56
2023-01-12T21:51:22.243Z,95242.94
2023-01-12T21:53:51.884Z,95256.22
2023-01-12T21:56:21.020Z,95249.34
2023-01-12T21:58:50.519Z,95249.22
2023-01-12T22:01:20.251Z,95239.50
2023-01-12T22:03:49.598Z,95244.63
2023-01-12T22:06:20.077Z,95242.81
2023-01-12T22:08:49.247Z,95243.63
2023-01-12T22:11:18.605Z,95231.91
2023-01-12T22:13:47.749Z,95241.63
2023-01-12T22:16:18.035Z,95236.34
2023-01-12T22:18:49.468Z,95230.28
2023-01-12T22:21:22.052Z,95229.41
2023-01-12T22:23:51.050Z,95228.03
2023-01-12T22:26:21.395Z,95215.44
2023-01-12T22:28:50.960Z,95220.91
2023-01-12T22:31:22.605Z,95215.44
2023-01-12T22:33:58.809Z,95218.09
2023-01-12T22:36:29.644Z,95224.91
2023-01-12T22:38:58.999Z,95220.13
2023-01-12T22:41:28.196Z,95209.94
2023-01-12T22:43:57.607Z,95212.19
2023-01-12T22:46:28.857Z,95221.94
2023-01-12T22:48:59.668Z,95212.94
2023-01-12T22:51:31.481Z,95208.44
2023-01-12T22:54:00.869Z,95214.56
2023-01-12T22:56:30.003Z,95210.25
2023-01-12T22:58:59.083Z,95218.19
2023-01-12T23:01:28.365Z,95214.75
2023-01-12T23:03:58.733Z,95210.44
2023-01-12T23:06:29.799Z,95216.28
2023-01-12T23:08:58.819Z,95206.56
2023-01-12T23:11:28.563Z,95208.75
2023-01-12T23:13:57.627Z,95212.19
2023-01-12T23:16:28.804Z,95209.75
2023-01-12T23:18:57.899Z,95208.88
2023-01-12T23:21:29.138Z,95196.41
2023-01-12T23:24:01.638Z,95209.56
2023-01-12T23:26:32.603Z,95210.88
2023-01-12T23:29:03.435Z,95214.53
2023-01-12T23:31:34.140Z,95214.63
2023-01-12T23:34:03.600Z,95214.84
2023-01-12T23:36:33.034Z,95208.38
2023-01-12T23:39:05.568Z,95207.25
2023-01-12T23:41:36.765Z,95213.94
2023-01-12T23:44:08.219Z,95215.97
2023-01-12T23:46:40.152Z,95207.91
2023-01-12T23:49:09.394Z,95219.41
2023-01-12T23:51:38.379Z,95218.19
2023-01-12T23:54:08.930Z,95217.44
2023-01-12T23:56:38.364Z,95223.44
2023-01-12T23:59:07.279Z,95235.13
